Time;durP1;ratioP1;P1;durP2;ratioP2;P2;SDS_P1;SDS_P2;PMS_P1;PMS_P2;Temp;Humidity;BMP_temperature;BMP_pressure;BME280_temperature;BME280_humidity;BME280_pressure;Samples;Min_cycle;Max_cycle;Signal;HPM_P1;HPM_P2
2022/07/04 00:00:40;;;;;;;0.80;0.80;;;23.70;73.90;;;;;;5086257;23;20325;-72
2022/07/04 00:03:06;;;;;;;1.00;1.00;;;23.80;74.00;;;;;;4953123;28;20257;-72
2022/07/04 00:05:32;;;;;;;1.27;1.13;;;23.70;73.80;;;;;;4954186;28;20237;-71
2022/07/04 00:07:58;;;;;;;1.05;0.85;;;23.70;73.70;;;;;;4953225;28;20285;-72
2022/07/04 00:10:24;;;;;;;0.90;0.90;;;23.70;73.70;;;;;;4952235;28;20206;-72
2022/07/04 00:12:50;;;;;;;0.70;0.70;;;23.80;73.90;;;;;;4952391;29;20186;-72
2022/07/04 00:15:16;;;;;;;1.10;0.90;;;23.70;73.80;;;;;;4953058;28;20193;-72
2022/07/04 00:17:42;;;;;;;0.82;0.82;;;23.80;74.00;;;;;;4952592;28;20193;-72
2022/07/04 00:20:10;;;;;;;0.95;0.95;;;23.80;73.90;;;;;;4952482;29;20218;-72
2022/07/04 00:22:36;;;;;;;1.00;1.00;;;23.70;73.90;;;;;;4954149;28;20175;-72
2022/07/04 00:25:03;;;;;;;1.00;0.90;;;23.70;73.80;;;;;;4952829;29;20205;-73
2022/07/04 00:27:28;;;;;;;1.52;1.00;;;23.70;74.60;;;;;;4953899;29;20202;-72
2022/07/04 00:29:54;;;;;;;0.80;0.80;;;23.70;73.80;;;;;;4968657;28;20288;-72
2022/07/04 00:32:20;;;;;;;0.90;0.90;;;23.70;73.90;;;;;;4952745;28;20179;-72
2022/07/04 00:34:46;;;;;;;1.25;0.95;;;23.70;73.80;;;;;;4953969;28;20237;-72
2022/07/04 00:37:12;;;;;;;0.98;0.98;;;23.70;73.80;;;;;;4952226;29;20198;-72
2022/07/04 00:39:38;;;;;;;1.50;1.20;;;23.70;73.80;;;;;;4936024;29;20261;-72
2022/07/04 00:42:05;;;;;;;4.10;1.00;;;23.70;73.70;;;;;;4936773;28;20178;-72
2022/07/04 00:44:36;;;;;;;1.00;0.90;;;23.70;73.70;;;;;;4953867;28;20198;-72
2022/07/04 00:47:06;;;;;;;1.10;1.00;;;23.70;73.80;;;;;;4953658;28;20210;-72
2022/07/04 00:49:32;;;;;;;1.27;1.00;;;23.70;73.80;;;;;;4935890;29;20203;-72
2022/07/04 00:52:00;;;;;;;1.00;1.00;;;23.70;73.80;;;;;;4936884;28;20190;-72
2022/07/04 00:54:29;;;;;;;0.93;0.90;;;23.70;73.80;;;;;;4939267;28;20183;-72
2022/07/04 00:56:57;;;;;;;0.85;0.85;;;23.70;73.80;;;;;;4955831;28;20190;-72
2022/07/04 00:59:23;;;;;;;1.02;0.90;;;23.70;73.80;;;;;;4955590;28;20233;-72
2022/07/04 01:01:50;;;;;;;1.10;1.00;;;23.70;73.80;;;;;;4972242;28;20194;-72
2022/07/04 01:04:16;;;;;;;1.10;1.00;;;23.70;73.80;;;;;;4940300;29;20191;-72
2022/07/04 01:06:44;;;;;;;1.00;1.00;;;23.70;73.80;;;;;;4956084;28;20206;-72
2022/07/04 01:09:11;;;;;;;1.00;1.00;;;23.70;73.80;;;;;;4971586;28;20216;-72
2022/07/04 01:11:36;;;;;;;1.00;0.90;;;23.70;73.80;;;;;;4955686;29;20190;-72
2022/07/04 01:14:03;;;;;;;0.85;0.85;;;23.70;73.80;;;;;;4956284;28;20324;-72
2022/07/04 01:16:29;;;;;;;0.80;0.80;;;23.70;73.80;;;;;;4955851;28;20196;-72
2022/07/04 01:18:55;;;;;;;0.90;0.90;;;23.70;73.80;;;;;;4971620;28;20261;-72
2022/07/04 01:21:21;;;;;;;0.90;0.90;;;23.70;73.70;;;;;;4939848;28;20221;-72
2022/07/04 01:23:47;;;;;;;1.13;0.90;;;23.70;73.70;;;;;;4955841;29;20183;-72
2022/07/04 01:26:14;;;;;;;1.05;0.90;;;23.70;73.70;;;;;;4955607;28;20619;-72
2022/07/04 01:28:39;;;;;;;1.10;1.00;;;23.70;73.70;;;;;;4956357;28;20189;-71
2022/07/04 01:31:06;;;;;;;0.93;0.90;;;23.70;73.70;;;;;;4955558;28;20289;-72
2022/07/04 01:33:33;;;;;;;0.90;0.90;;;23.70;73.70;;;;;;4955613;28;20269;-72
2022/07/04 01:35:59;;;;;;;0.70;0.70;;;23.70;73.70;;;;;;4956735;28;20222;-72
2022/07/04 01:38:25;;;;;;;1.00;1.00;;;23.70;73.70;;;;;;4958324;28;20186;-72
2022/07/04 01:40:51;;;;;;;1.58;1.00;;;23.70;73.80;;;;;;4973950;28;20205;-72
2022/07/04 01:43:17;;;;;;;0.90;0.90;;;23.60;73.70;;;;;;4990955;28;20189;-72
2022/07/04 01:45:43;;;;;;;0.70;0.70;;;23.70;73.80;;;;;;4990746;28;20551;-72
2022/07/04 01:48:12;;;;;;;1.17;1.10;;;23.70;73.80;;;;;;4974491;28;20685;-72
2022/07/04 01:50:38;;;;;;;1.00;1.00;;;23.60;73.70;;;;;;4975010;28;20216;-71
2022/07/04 01:53:05;;;;;;;0.80;0.80;;;23.70;73.80;;;;;;4974751;28;20182;-72
2022/07/04 01:55:31;;;;;;;0.70;0.70;;;23.60;73.60;;;;;;4958578;28;20256;-72
2022/07/04 01:57:58;;;;;;;1.00;0.95;;;23.60;73.70;;;;;;4974375;28;20189;-72
2022/07/04 02:03:10;;;;;;;1.30;0.98;;;23.60;73.70;;;;;;4990833;28;20689;-72
2022/07/04 02:05:39;;;;;;;1.30;0.90;;;23.70;73.80;;;;;;4958096;28;20185;-71
2022/07/04 02:08:07;;;;;;;1.30;0.70;;;23.60;73.80;;;;;;4958190;28;20701;-72
2022/07/04 02:10:33;;;;;;;1.38;0.80;;;23.60;73.70;;;;;;4957558;28;20221;-72
2022/07/04 02:13:03;;;;;;;0.90;0.90;;;23.60;73.80;;;;;;4973930;28;20185;-71
2022/07/04 02:15:35;;;;;;;2.25;0.90;;;23.60;73.70;;;;;;4962746;28;20192;-72
2022/07/04 02:18:03;;;;;;;0.90;0.90;;;23.60;73.70;;;;;;4954474;29;20190;-72
2022/07/04 02:20:29;;;;;;;1.20;1.10;;;23.60;73.70;;;;;;4970242;28;20724;-72
2022/07/04 02:22:56;;;;;;;0.80;0.80;;;23.60;73.70;;;;;;4954789;28;20182;-72
2022/07/04 02:25:22;;;;;;;0.70;0.70;;;23.60;73.80;;;;;;4954876;28;20635;-72
2022/07/04 02:27:54;;;;;;;0.70;0.70;;;23.60;73.80;;;;;;4939189;28;20590;-72
2022/07/04 02:30:20;;;;;;;0.90;0.90;;;23.60;73.80;;;;;;4969833;28;20226;-72
2022/07/04 02:32:46;;;;;;;0.88;0.88;;;23.60;73.80;;;;;;4954344;28;20693;-72
2022/07/04 02:35:12;;;;;;;1.10;1.10;;;23.60;73.80;;;;;;4938360;28;20210;-72
2022/07/04 02:37:38;;;;;;;0.80;0.80;;;23.60;73.80;;;;;;4955553;28;20201;-72
2022/07/04 02:40:06;;;;;;;1.20;1.10;;;23.60;73.70;;;;;;4953952;28;20252;-72
2022/07/04 02:42:33;;;;;;;1.08;0.90;;;23.60;73.70;;;;;;4954198;28;20186;-72
2022/07/04 02:45:00;;;;;;;0.80;0.80;;;23.60;73.80;;;;;;4954278;28;20268;-72
2022/07/04 02:47:26;;;;;;;0.85;0.85;;;23.60;73.70;;;;;;4954154;28;20273;-72
2022/07/04 02:49:53;;;;;;;0.80;0.80;;;23.60;73.80;;;;;;4937963;28;20202;-72
2022/07/04 02:52:19;;;;;;;0.82;0.82;;;23.60;73.70;;;;;;4954090;28;20201;-72
2022/07/04 02:54:46;;;;;;;0.80;0.80;;;23.60;73.80;;;;;;4955352;28;20183;-72
2022/07/04 02:57:13;;;;;;;0.73;0.73;;;23.60;73.70;;;;;;4955124;28;20190;-72
2022/07/04 02:59:39;;;;;;;0.80;0.80;;;23.60;73.60;;;;;;4969247;28;20218;-72
2022/07/04 03:02:05;;;;;;;0.80;0.80;;;23.60;73.70;;;;;;4937949;28;20654;-72
2022/07/04 03:04:31;;;;;;;0.80;0.80;;;23.60;73.70;;;;;;4938255;28;20194;-72
2022/07/04 03:06:57;;;;;;;1.25;0.85;;;23.60;73.60;;;;;;4937717;28;20220;-72
2022/07/04 03:09:23;;;;;;;1.10;1.00;;;23.60;73.50;;;;;;4937146;29;20216;-71
2022/07/04 03:11:49;;;;;;;0.80;0.80;;;23.60;73.70;;;;;;4937639;28;20182;-72
2022/07/04 03:14:15;;;;;;;0.90;0.90;;;23.60;73.70;;;;;;4969854;28;20182;-72
2022/07/04 03:16:40;;;;;;;0.80;0.80;;;23.60;73.60;;;;;;4969225;28;20214;-72
2022/07/04 03:19:06;;;;;;;0.80;0.80;;;23.60;73.70;;;;;;4954336;28;20226;-72
2022/07/04 03:21:32;;;;;;;1.10;1.00;;;23.60;73.70;;;;;;4969859;28;20192;-72
2022/07/04 03:23:58;;;;;;;0.88;0.88;;;23.60;73.70;;;;;;4937482;29;20201;-72
2022/07/04 03:26:30;;;;;;;0.90;0.90;;;23.60;73.70;;;;;;4953649;28;20312;-72
2022/07/04 03:28:58;;;;;;;0.75;0.75;;;23.60;73.60;;;;;;4936893;28;20198;-71
2022/07/04 03:31:25;;;;;;;0.80;0.80;;;23.60;73.70;;;;;;4937557;29;20218;-72
2022/07/04 03:33:51;;;;;;;1.20;0.90;;;23.60;73.60;;;;;;4953556;28;20246;-72
2022/07/04 03:36:17;;;;;;;0.93;0.80;;;23.60;73.60;;;;;;4953555;28;20273;-72
2022/07/04 03:38:44;;;;;;;0.90;0.90;;;23.60;73.70;;;;;;4969570;28;20181;-72
2022/07/04 03:41:10;;;;;;;0.90;0.90;;;23.60;73.80;;;;;;4968584;28;20698;-72
2022/07/04 03:43:36;;;;;;;0.82;0.80;;;23.60;73.70;;;;;;4953649;28;20210;-72
2022/07/04 03:46:02;;;;;;;0.90;0.90;;;23.60;73.70;;;;;;4937042;28;20187;-71
2022/07/04 03:48:28;;;;;;;0.80;0.80;;;23.60;73.60;;;;;;4953424;28;20205;-72
2022/07/04 03:50:54;;;;;;;2.30;1.20;;;23.60;73.60;;;;;;4953757;28;20206;-72
2022/07/04 03:53:20;;;;;;;1.00;1.00;;;23.60;73.60;;;;;;4953090;28;20197;-72
2022/07/04 03:55:47;;;;;;;1.02;1.00;;;23.60;74.40;;;;;;4954312;28;20265;-72
2022/07/04 03:58:13;;;;;;;0.90;0.90;;;23.60;73.60;;;;;;4953054;28;20201;-72
2022/07/04 04:00:39;;;;;;;1.08;1.00;;;23.60;73.50;;;;;;4952489;29;20210;-72
2022/07/04 04:05:26;;;;;;;0.70;0.70;;;23.60;73.70;;;;;;4952982;29;20182;-72
2022/07/04 04:05:54;;;;;;;0.80;0.80;;;23.60;73.60;;;;;;4951629;28;20198;-72
2022/07/04 04:08:20;;;;;;;1.00;1.00;;;23.60;73.60;;;;;;4952984;28;20214;-72
2022/07/04 04:10:46;;;;;;;0.80;0.80;;;23.60;73.50;;;;;;4953554;28;20691;-72
2022/07/04 04:13:12;;;;;;;0.93;0.93;;;23.60;73.70;;;;;;4936901;28;20237;-72
2022/07/04 04:15:38;;;;;;;1.30;1.20;;;23.60;73.60;;;;;;4953227;28;20289;-72
2022/07/04 04:18:04;;;;;;;1.00;0.90;;;23.60;73.60;;;;;;4952974;28;20313;-72
2022/07/04 04:20:30;;;;;;;1.33;1.23;;;23.60;73.50;;;;;;4968305;28;20206;-72
2022/07/04 04:22:55;;;;;;;1.48;0.73;;;23.50;73.50;;;;;;4937246;28;20562;-72
2022/07/04 04:25:21;;;;;;;0.80;0.80;;;23.60;73.70;;;;;;4968947;28;20205;-72
2022/07/04 04:27:47;;;;;;;1.00;1.00;;;23.60;73.70;;;;;;4936848;28;20746;-72
2022/07/04 04:30:13;;;;;;;0.90;0.82;;;23.50;73.50;;;;;;4955995;28;20217;-72
2022/07/04 04:32:39;;;;;;;1.02;1.02;;;23.40;73.20;;;;;;4940753;28;20230;-72
2022/07/04 04:35:05;;;;;;;0.82;0.82;;;23.40;73.60;;;;;;4957763;28;20325;-72
2022/07/04 04:37:31;;;;;;;1.00;1.00;;;23.30;72.90;;;;;;4972691;28;20197;-72
2022/07/04 04:39:56;;;;;;;2.03;1.27;;;23.30;73.00;;;;;;4972152;28;20297;-71
2022/07/04 04:42:22;;;;;;;1.10;1.10;;;23.20;72.40;;;;;;4940726;28;20194;-74
2022/07/04 04:44:48;;;;;;;1.40;1.30;;;23.20;72.10;;;;;;4957632;28;20187;-72
2022/07/04 04:47:14;;;;;;;1.60;1.50;;;23.20;72.40;;;;;;4940392;29;20245;-72
2022/07/04 04:49:40;;;;;;;1.48;1.35;;;23.10;72.10;;;;;;4939807;28;20218;-71
2022/07/04 04:52:06;;;;;;;1.58;1.48;;;23.00;71.90;;;;;;4956307;28;20586;-72
2022/07/04 04:54:33;;;;;;;2.42;1.70;;;23.00;71.80;;;;;;4957181;29;20190;-72
2022/07/04 04:57:00;;;;;;;2.45;1.45;;;23.10;72.60;;;;;;4940308;28;20262;-72
2022/07/04 04:59:29;;;;;;;1.33;1.23;;;23.20;72.90;;;;;;4939569;29;20218;-72
2022/07/04 05:01:56;;;;;;;1.45;1.30;;;23.20;72.90;;;;;;4957765;28;20213;-72
2022/07/04 05:04:22;;;;;;;1.58;1.48;;;23.30;72.60;;;;;;4956122;28;20221;-73
2022/07/04 05:06:48;;;;;;;1.52;1.42;;;23.30;72.50;;;;;;4940093;29;20282;-72
2022/07/04 05:09:14;;;;;;;2.47;1.23;;;23.30;72.50;;;;;;4971927;28;20304;-72
2022/07/04 05:11:40;;;;;;;1.73;1.63;;;23.40;72.60;;;;;;4939917;29;20273;-72
2022/07/04 05:14:05;;;;;;;1.50;1.40;;;23.40;72.50;;;;;;4939914;28;20578;-71
2022/07/04 05:16:31;;;;;;;1.70;1.55;;;23.30;72.40;;;;;;4956011;28;20198;-72
2022/07/04 05:18:57;;;;;;;1.85;1.50;;;23.40;72.50;;;;;;4956984;28;20206;-72
2022/07/04 05:21:26;;;;;;;1.65;1.55;;;23.40;72.50;;;;;;4955342;28;20195;-73
2022/07/04 05:23:52;;;;;;;1.65;1.30;;;23.40;72.40;;;;;;4939744;28;20182;-72
2022/07/04 05:26:18;;;;;;;2.97;1.50;;;23.40;72.40;;;;;;4939654;29;20233;-72
2022/07/04 05:28:43;;;;;;;1.75;1.35;;;23.40;72.50;;;;;;4955693;28;20186;-71
2022/07/04 05:31:09;;;;;;;1.60;1.50;;;23.40;72.40;;;;;;4971275;28;20206;-72
2022/07/04 05:33:35;;;;;;;1.70;1.60;;;23.40;72.50;;;;;;4955829;29;20190;-72
2022/07/04 05:36:01;;;;;;;1.70;1.60;;;23.40;72.50;;;;;;4956839;28;20194;-73
2022/07/04 05:38:26;;;;;;;1.20;1.20;;;23.40;72.50;;;;;;4920652;28;20195;-72
2022/07/04 05:40:52;;;;;;;1.52;1.42;;;23.40;72.50;;;;;;4935361;28;20215;-72
2022/07/04 05:43:18;;;;;;;1.40;1.30;;;23.40;72.40;;;;;;4952062;28;20382;-72
2022/07/04 05:45:44;;;;;;;2.15;1.50;;;23.40;72.40;;;;;;4938859;29;20191;-72
2022/07/04 05:48:09;;;;;;;1.73;1.55;;;23.40;72.40;;;;;;4955103;28;20599;-72
2022/07/04 05:50:35;;;;;;;1.63;1.52;;;23.40;72.40;;;;;;4938725;28;20253;-72
2022/07/04 05:53:01;;;;;;;1.45;1.35;;;23.40;72.40;;;;;;4955196;29;20269;-72
2022/07/04 05:55:27;;;;;;;1.45;1.30;;;23.40;72.40;;;;;;4955204;28;20186;-72
2022/07/04 05:57:53;;;;;;;1.40;1.30;;;23.40;72.30;;;;;;4956442;28;20187;-72
2022/07/04 06:00:19;;;;;;;1.92;1.40;;;23.40;72.30;;;;;;4970476;28;20317;-72
2022/07/04 06:02:44;;;;;;;1.40;1.30;;;23.40;72.20;;;;;;4971102;28;20236;-72
2022/07/04 06:05:10;;;;;;;3.38;1.65;;;23.40;72.20;;;;;;4955694;28;20241;-73
2022/07/04 06:07:37;;;;;;;1.77;1.20;;;23.40;72.20;;;;;;4971263;28;20277;-72
2022/07/04 06:10:05;;;;;;;1.90;1.80;;;23.50;72.30;;;;;;4955541;28;20573;-72
2022/07/04 06:12:30;;;;;;;1.58;1.48;;;23.40;72.20;;;;;;4970714;28;20186;-72
2022/07/04 06:14:56;;;;;;;1.40;1.30;;;23.40;73.00;;;;;;4955065;28;20182;-73
2022/07/04 06:17:22;;;;;;;1.65;1.30;;;23.40;72.10;;;;;;4955054;28;20670;-72
2022/07/04 06:19:48;;;;;;;1.73;1.40;;;23.40;72.20;;;;;;4955292;28;20214;-72
2022/07/04 06:22:13;;;;;;;2.25;1.15;;;23.40;72.20;;;;;;4954631;28;20260;-72
2022/07/04 06:24:40;;;;;;;1.60;1.50;;;23.40;72.10;;;;;;4971124;28;20205;-72
2022/07/04 06:27:05;;;;;;;1.88;1.48;;;23.50;72.30;;;;;;4954515;28;20222;-72
2022/07/04 06:29:31;;;;;;;1.90;1.30;;;23.50;72.20;;;;;;4970423;28;20305;-72
2022/07/04 06:31:57;;;;;;;1.58;1.48;;;23.40;72.20;;;;;;4955951;28;20234;-72
2022/07/04 06:37:07;;;;;;;1.50;1.40;;;23.40;72.20;;;;;;4954246;28;20210;-71
2022/07/04 06:39:33;;;;;;;1.95;1.52;;;23.50;72.30;;;;;;4969327;28;20218;-72
2022/07/04 06:41:58;;;;;;;1.40;1.30;;;23.40;72.20;;;;;;4940753;29;20587;-72
2022/07/04 06:44:24;;;;;;;1.40;1.30;;;23.40;72.20;;;;;;4954257;29;20190;-72
2022/07/04 06:46:50;;;;;;;2.03;1.42;;;23.50;72.20;;;;;;4937895;28;20214;-72
2022/07/04 06:49:16;;;;;;;3.78;1.60;;;23.50;72.20;;;;;;4969498;28;20214;-73
2022/07/04 06:51:42;;;;;;;1.13;1.10;;;23.50;72.20;;;;;;4936962;29;20186;-72
2022/07/04 06:54:08;;;;;;;1.50;1.40;;;23.50;72.20;;;;;;4954180;29;20269;-72
2022/07/04 06:56:34;;;;;;;2.28;1.60;;;23.50;72.20;;;;;;4970389;28;20245;-72
2022/07/04 06:58:59;;;;;;;1.55;1.45;;;23.50;72.20;;;;;;4952824;29;20201;-72
2022/07/04 07:01:25;;;;;;;1.40;1.30;;;23.50;72.20;;;;;;4964407;28;20202;-72
2022/07/04 07:03:51;;;;;;;1.40;1.30;;;23.50;72.10;;;;;;4954843;28;20194;-73
2022/07/04 07:06:17;;;;;;;1.20;1.20;;;23.50;72.10;;;;;;4969849;28;20194;-72
2022/07/04 07:08:42;;;;;;;1.80;1.70;;;23.50;72.20;;;;;;4938634;29;20187;-72
2022/07/04 07:11:14;;;;;;;1.98;1.60;;;23.50;72.20;;;;;;4953149;28;20206;-72
2022/07/04 07:13:46;;;;;;;1.60;1.50;;;23.50;72.20;;;;;;4953664;29;20190;-72
2022/07/04 07:16:13;;;;;;;1.77;1.65;;;23.50;72.30;;;;;;4937244;28;20681;-72
2022/07/04 07:18:39;;;;;;;2.03;1.27;;;23.50;72.20;;;;;;4953890;28;20281;-72
2022/07/04 07:21:05;;;;;;;2.47;1.35;;;23.50;72.20;;;;;;4953101;28;20206;-72
2022/07/04 07:23:31;;;;;;;2.25;1.38;;;23.50;72.30;;;;;;4954878;28;20285;-72
2022/07/04 07:25:57;;;;;;;1.63;1.52;;;23.50;72.20;;;;;;4953442;29;20313;-72
2022/07/04 07:28:22;;;;;;;1.55;1.45;;;23.50;72.30;;;;;;4969482;28;20305;-72
2022/07/04 07:30:48;;;;;;;1.50;1.40;;;23.50;72.30;;;;;;4942631;28;20211;-73
2022/07/04 07:33:14;;;;;;;1.40;1.30;;;23.50;72.20;;;;;;4935238;29;20183;-72
2022/07/04 07:35:40;;;;;;;1.98;1.52;;;23.50;72.00;;;;;;4918396;29;20183;-73
2022/07/04 07:38:06;;;;;;;1.50;1.40;;;23.50;72.00;;;;;;4934358;29;20266;-72
2022/07/04 07:40:33;;;;;;;2.22;1.50;;;23.50;72.00;;;;;;4944948;29;20234;-72
2022/07/04 07:42:59;;;;;;;1.30;1.20;;;23.50;72.10;;;;;;4940168;28;20194;-71
2022/07/04 07:45:25;;;;;;;1.40;1.30;;;23.50;72.20;;;;;;4953071;28;20186;-72
2022/07/04 07:47:50;;;;;;;2.83;1.60;;;23.60;72.30;;;;;;4949523;28;20230;-71
2022/07/04 07:50:16;;;;;;;1.50;1.40;;;23.50;72.20;;;;;;4935823;28;20207;-72
2022/07/04 07:52:42;;;;;;;1.73;1.60;;;23.50;72.20;;;;;;4940180;28;20187;-72
2022/07/04 07:55:08;;;;;;;1.50;1.40;;;23.50;72.00;;;;;;4933901;29;20175;-72
2022/07/04 07:57:34;;;;;;;1.77;1.67;;;23.50;72.10;;;;;;4949648;29;20242;-72
2022/07/04 08:00:00;;;;;;;1.58;1.45;;;23.60;72.20;;;;;;4949367;28;20213;-72
2022/07/04 08:05:12;;;;;;;1.58;1.40;;;23.60;72.30;;;;;;4946117;28;20229;-72
2022/07/04 08:07:39;;;;;;;1.55;1.45;;;23.60;72.30;;;;;;4952923;29;20289;-72
2022/07/04 08:10:06;;;;;;;2.03;1.40;;;23.60;72.30;;;;;;4953459;29;20199;-73
2022/07/04 08:12:32;;;;;;;1.80;1.70;;;23.60;72.30;;;;;;4968981;28;20198;-72
2022/07/04 08:14:58;;;;;;;1.70;1.60;;;23.60;72.30;;;;;;4969334;28;20709;-73
2022/07/04 08:17:24;;;;;;;2.05;1.40;;;23.60;72.40;;;;;;4960142;28;20187;-72
2022/07/04 08:19:50;;;;;;;2.40;1.60;;;23.60;72.40;;;;;;4964599;28;20211;-73
2022/07/04 08:22:16;;;;;;;2.40;1.30;;;23.60;72.50;;;;;;4969209;28;20189;-72
2022/07/04 08:24:43;;;;;;;1.60;1.50;;;23.60;72.50;;;;;;4950753;29;20182;-72
2022/07/04 08:27:10;;;;;;;1.40;1.30;;;23.60;72.40;;;;;;4943987;28;20221;-73
2022/07/04 08:29:36;;;;;;;2.13;1.55;;;23.60;72.60;;;;;;4953081;28;20238;-73
2022/07/04 08:32:03;;;;;;;1.42;1.33;;;23.60;72.40;;;;;;4968440;28;20672;-73
2022/07/04 08:34:29;;;;;;;2.35;1.50;;;23.60;72.40;;;;;;4969007;28;20186;-72
2022/07/04 08:36:54;;;;;;;1.20;1.20;;;23.60;72.30;;;;;;4952677;28;20198;-72
2022/07/04 08:39:20;;;;;;;2.97;1.38;;;23.60;72.40;;;;;;4952557;29;20210;-72
2022/07/04 08:41:49;;;;;;;1.58;1.48;;;23.60;72.40;;;;;;4968868;28;20193;-72
2022/07/04 08:44:16;;;;;;;1.40;1.30;;;23.60;72.40;;;;;;4968479;28;20190;-72
2022/07/04 08:46:42;;;;;;;1.25;1.15;;;23.60;72.30;;;;;;4968570;28;20210;-73
2022/07/04 08:49:20;;;;;;;1.40;1.30;;;23.60;72.40;;;;;;4953431;28;20269;-72
2022/07/04 08:51:57;;;;;;;1.33;1.20;;;23.60;72.60;;;;;;4936584;29;20213;-73
2022/07/04 08:59:58;;;;;;;1.40;1.30;;;23.60;72.70;;;;;;4933217;29;20222;-71
2022/07/04 09:02:28;;;;;;;1.58;1.48;;;23.60;72.70;;;;;;4931443;28;20187;-72
2022/07/04 09:04:54;;;;;;;1.20;1.20;;;23.60;72.80;;;;;;4948168;28;20202;-73
2022/07/04 09:07:21;;;;;;;1.35;1.25;;;23.60;72.80;;;;;;4932448;28;20210;-72
2022/07/04 09:09:47;;;;;;;2.33;1.35;;;23.60;72.70;;;;;;4951032;28;20207;-72
2022/07/04 09:12:13;;;;;;;2.63;1.60;;;23.60;72.80;;;;;;4951148;28;20310;-72
2022/07/04 09:14:40;;;;;;;1.35;1.25;;;23.60;72.80;;;;;;4952347;28;20194;-72
2022/07/04 09:17:06;;;;;;;1.58;1.48;;;23.60;72.80;;;;;;4954343;29;20261;-72
2022/07/04 09:19:33;;;;;;;1.50;1.30;;;23.60;72.80;;;;;;4953980;29;20198;-72
2022/07/04 09:22:05;;;;;;;1.23;1.23;;;23.60;72.80;;;;;;4959419;28;20222;-72
2022/07/04 09:24:50;;;;;;;2.00;1.52;;;23.60;72.80;;;;;;4936297;28;20294;-73
2022/07/04 09:27:35;;;;;;;1.58;1.48;;;23.60;72.80;;;;;;4963432;28;20210;-71
2022/07/04 09:30:02;;;;;;;1.65;1.40;;;23.60;72.80;;;;;;4961873;28;20206;-73
2022/07/04 09:32:47;;;;;;;1.33;1.23;;;23.60;72.80;;;;;;4955103;28;20576;-73
2022/07/04 09:35:20;;;;;;;1.98;1.20;;;23.60;72.80;;;;;;4954245;29;20194;-73
2022/07/04 09:38:03;;;;;;;2.17;1.50;;;23.60;72.80;;;;;;4947929;29;20202;-72
2022/07/04 09:41:24;;;;;;;1.50;1.40;;;23.60;72.80;;;;;;4942210;29;20254;-73
2022/07/04 09:43:20;;;;;;;1.63;1.42;;;23.60;72.80;;;;;;4958246;28;20248;-72
2022/07/04 09:45:59;;;;;;;1.30;1.20;;;23.60;72.80;;;;;;4935642;28;20183;-72
2022/07/04 09:48:25;;;;;;;1.40;1.30;;;23.60;72.80;;;;;;4940569;28;20760;-72
2022/07/04 09:50:51;;;;;;;1.60;1.50;;;23.60;72.90;;;;;;4953282;29;20211;-72
2022/07/04 09:53:17;;;;;;;1.30;1.20;;;23.60;72.90;;;;;;4969703;28;20186;-73
2022/07/04 09:55:45;;;;;;;1.52;1.48;;;23.60;72.80;;;;;;4953914;29;20183;-72
2022/07/04 09:58:14;;;;;;;1.73;1.63;;;23.60;72.80;;;;;;4969712;28;20249;-72
2022/07/04 10:00:51;;;;;;;1.40;1.30;;;23.60;72.80;;;;;;4952529;29;20214;-72
2022/07/04 10:03:30;;;;;;;1.65;1.55;;;23.60;72.90;;;;;;4955350;29;20570;-72
2022/07/04 10:06:03;;;;;;;1.40;1.30;;;23.60;72.90;;;;;;4969684;28;20190;-72
2022/07/04 10:08:29;;;;;;;1.35;1.25;;;23.60;72.90;;;;;;4949125;28;20233;-72
2022/07/04 10:11:01;;;;;;;2.50;1.23;;;23.60;73.00;;;;;;4943382;29;20199;-72
2022/07/04 10:13:27;;;;;;;1.38;1.27;;;23.60;73.00;;;;;;4934942;28;20234;-72
2022/07/04 10:15:53;;;;;;;1.58;1.48;;;23.60;73.10;;;;;;4951241;28;20189;-73
2022/07/04 10:18:22;;;;;;;1.25;1.15;;;23.60;73.10;;;;;;4969695;28;20198;-73
2022/07/04 10:20:50;;;;;;;1.60;1.50;;;23.60;73.10;;;;;;4952499;28;20668;-73
2022/07/04 10:23:18;;;;;;;1.40;1.30;;;23.60;73.00;;;;;;4954470;28;20194;-73
2022/07/04 10:25:49;;;;;;;1.33;1.20;;;23.60;73.00;;;;;;4938921;28;20218;-72
2022/07/04 10:28:16;;;;;;;1.40;1.30;;;23.60;73.00;;;;;;4954317;28;20596;-72
2022/07/04 10:30:52;;;;;;;1.60;1.50;;;23.70;73.10;;;;;;4941152;29;20738;-72
2022/07/04 10:33:28;;;;;;;2.20;1.48;;;23.60;73.10;;;;;;4950383;28;20187;-72
2022/07/04 10:36:03;;;;;;;1.40;1.30;;;23.60;73.00;;;;;;4946571;28;20182;-72
2022/07/04 10:38:52;;;;;;;2.25;1.38;;;23.70;73.10;;;;;;4945027;28;20273;-72
2022/07/04 10:41:23;;;;;;;1.65;1.33;;;23.70;73.10;;;;;;4963833;28;20222;-73
2022/07/04 10:44:01;;;;;;;1.73;1.40;;;23.70;73.10;;;;;;4948079;28;20190;-73
2022/07/04 10:46:32;;;;;;;1.80;1.30;;;23.70;73.20;;;;;;4936921;28;20198;-73
2022/07/04 10:49:19;;;;;;;1.60;1.33;;;23.70;73.10;;;;;;4942822;28;20741;-73
2022/07/04 10:51:54;;;;;;;1.10;1.10;;;23.70;73.10;;;;;;4923099;28;20569;-72
2022/07/04 10:54:37;;;;;;;2.00;1.45;;;23.70;73.10;;;;;;4934947;28;20190;-72
2022/07/04 10:57:24;;;;;;;1.85;1.60;;;23.70;73.10;;;;;;4935811;29;20199;-72
2022/07/04 10:59:56;;;;;;;1.38;1.27;;;23.70;73.10;;;;;;4933621;29;20234;-72
2022/07/04 11:02:25;;;;;;;1.88;1.60;;;23.70;73.10;;;;;;4956324;28;20292;-73
2022/07/04 11:05:03;;;;;;;1.58;1.48;;;23.70;73.40;;;;;;4931171;28;20191;-73
2022/07/04 11:07:35;;;;;;;2.17;1.13;;;23.70;73.30;;;;;;4961223;28;20698;-72
2022/07/04 11:10:21;;;;;;;1.38;1.27;;;23.70;73.30;;;;;;4955675;28;20251;-72
2022/07/04 11:12:55;;;;;;;1.30;1.20;;;23.70;73.30;;;;;;4966305;28;20590;-73
2022/07/04 11:15:24;;;;;;;1.90;1.33;;;23.70;73.30;;;;;;4941550;28;20221;-73
2022/07/04 11:17:54;;;;;;;1.25;1.20;;;23.70;73.40;;;;;;4958267;28;20253;-73
2022/07/04 11:20:22;;;;;;;1.40;1.30;;;23.70;73.50;;;;;;4939725;28;20255;-73
2022/07/04 11:22:48;;;;;;;2.17;1.30;;;23.70;73.40;;;;;;4930064;28;20218;-72
2022/07/04 11:25:15;;;;;;;2.20;1.55;;;23.70;73.40;;;;;;4930822;28;20194;-73
2022/07/04 11:27:42;;;;;;;2.75;1.58;;;23.70;73.40;;;;;;4930136;29;20218;-73
2022/07/04 11:30:10;;;;;;;1.40;1.27;;;23.70;73.50;;;;;;4926601;28;20210;-73
2022/07/04 11:32:38;;;;;;;1.70;1.60;;;23.70;73.50;;;;;;4943282;29;20187;-73
2022/07/04 11:35:06;;;;;;;1.33;1.23;;;23.70;73.60;;;;;;4963078;28;20191;-73
2022/07/04 11:37:33;;;;;;;1.98;1.52;;;23.70;73.50;;;;;;4957396;28;20211;-73
2022/07/04 11:45:51;;;;;;;2.13;1.58;;;23.70;73.70;;;;;;4937948;29;20191;-72
2022/07/04 11:48:27;;;;;;;1.60;1.42;;;23.70;73.70;;;;;;4941320;28;20199;-72
2022/07/04 11:50:54;;;;;;;1.60;1.50;;;23.70;74.10;;;;;;4931018;28;20257;-73
2022/07/04 11:53:20;;;;;;;1.65;1.40;;;23.70;73.90;;;;;;4949289;28;20230;-72
2022/07/04 11:56:00;;;;;;;1.73;1.63;;;23.70;73.90;;;;;;4949349;28;20192;-72
2022/07/04 11:58:43;;;;;;;2.50;1.73;;;23.70;73.80;;;;;;4944798;29;20187;-73
2022/07/04 12:01:11;;;;;;;2.90;1.50;;;23.70;73.80;;;;;;4935130;28;20226;-73
2022/07/04 12:03:36;;;;;;;2.10;1.63;;;23.70;73.80;;;;;;4933259;28;20183;-73
2022/07/04 12:06:05;;;;;;;1.70;1.60;;;23.70;73.70;;;;;;4935356;29;20189;-73
2022/07/04 12:08:32;;;;;;;2.25;1.70;;;23.80;73.90;;;;;;4935886;28;20240;-71
2022/07/04 12:10:58;;;;;;;1.73;1.50;;;23.70;73.70;;;;;;4950612;29;20292;-73
2022/07/04 12:13:24;;;;;;;1.63;1.52;;;23.70;73.70;;;;;;4951252;29;20273;-72
2022/07/04 12:15:52;;;;;;;2.15;1.65;;;23.70;73.60;;;;;;4952182;28;20183;-73
2022/07/04 12:18:20;;;;;;;2.90;1.80;;;23.70;73.70;;;;;;4951673;28;20190;-74
2022/07/04 12:20:52;;;;;;;1.52;1.42;;;23.70;73.70;;;;;;4950213;29;20217;-72
2022/07/04 12:23:21;;;;;;;1.50;1.40;;;23.80;74.00;;;;;;4956699;28;20195;-73
2022/07/04 12:25:51;;;;;;;1.70;1.60;;;23.70;74.00;;;;;;4942426;28;20194;-72
2022/07/04 12:28:18;;;;;;;2.55;1.50;;;23.70;74.00;;;;;;4948918;28;20222;-73
2022/07/04 12:30:58;;;;;;;3.47;1.50;;;23.70;74.00;;;;;;4931968;28;20221;-73
2022/07/04 12:33:29;;;;;;;1.83;1.65;;;23.80;74.10;;;;;;4948277;28;20219;-73
2022/07/04 12:36:04;;;;;;;3.42;1.80;;;23.70;73.90;;;;;;4928959;28;20185;-72
2022/07/04 12:38:29;;;;;;;1.60;1.40;;;23.80;74.10;;;;;;4951633;29;20665;-72
2022/07/04 12:41:02;;;;;;;1.80;1.70;;;23.80;74.10;;;;;;4965789;28;20210;-72
2022/07/04 12:43:43;;;;;;;1.90;1.63;;;23.70;74.10;;;;;;4951081;29;20199;-72
2022/07/04 12:46:24;;;;;;;2.97;1.80;;;23.80;74.10;;;;;;4959342;28;20199;-72
2022/07/04 12:48:52;;;;;;;2.28;1.50;;;23.80;74.20;;;;;;4951416;28;20220;-73
2022/07/04 12:51:27;;;;;;;1.98;1.77;;;23.70;74.20;;;;;;4953935;28;20190;-73
2022/07/04 12:53:55;;;;;;;2.00;1.80;;;23.70;74.30;;;;;;4948843;29;20179;-72
2022/07/04 12:56:31;;;;;;;2.55;1.67;;;23.70;74.20;;;;;;4952322;29;20688;-73
2022/07/04 12:58:59;;;;;;;2.60;1.73;;;23.80;74.20;;;;;;4951865;28;20258;-71
2022/07/04 13:01:25;;;;;;;1.70;1.60;;;23.80;74.20;;;;;;4943867;28;20201;-72
2022/07/04 13:03:51;;;;;;;1.90;1.80;;;23.70;74.10;;;;;;4950931;29;20196;-72
2022/07/04 13:06:17;;;;;;;2.00;1.90;;;23.80;74.70;;;;;;4951224;29;20190;-73
2022/07/04 13:08:43;;;;;;;1.70;1.60;;;23.80;74.40;;;;;;4954891;28;20228;-72
2022/07/04 13:13:53;;;;;;;2.30;1.65;;;23.80;74.30;;;;;;4970402;28;20191;-72